createdAt,value
2023-05-13T00:00:18.074Z,98708.97
2023-05-13T00:02:44.682Z,98708.34
2023-05-13T00:05:11.415Z,98708.09
2023-05-13T00:07:37.964Z,98707.25
2023-05-13T00:10:13.564Z,98713.84
2023-05-13T00:12:40.119Z,98706.06
2023-05-13T00:15:07.219Z,98700.78
2023-05-13T00:17:33.737Z,98703.28
2023-05-13T00:20:00.953Z,98703.53
2023-05-13T00:22:27.408Z,98701.97
2023-05-13T00:24:53.888Z,98701.34
2023-05-13T00:27:28.014Z,98701.28
2023-05-13T00:29:54.505Z,98699.75
2023-05-13T00:32:23.990Z,98695.34
2023-05-13T00:34:50.680Z,98695.56
2023-05-13T00:37:17.236Z,98696.34
2023-05-13T00:39:43.728Z,98693.28
2023-05-13T00:42:13.767Z,98696.91
2023-05-13T00:44:40.813Z,98699.31
2023-05-13T00:47:19.621Z,98701.34
2023-05-13T00:49:54.468Z,98699.75
2023-05-13T00:52:20.948Z,98696.91
2023-05-13T00:54:47.392Z,98702.59
2023-05-13T00:57:24.646Z,98698.56
2023-05-13T00:59:51.842Z,98704.94
2023-05-13T01:02:53.321Z,98700.72
2023-05-13T01:05:32.322Z,98703.59
2023-05-13T01:08:31.503Z,98705.72
2023-05-13T01:11:09.571Z,98700.31
2023-05-13T01:13:52.863Z,98702.31
2023-05-13T01:16:41.182Z,98694.53
2023-05-13T01:19:40.091Z,98702.34
2023-05-13T01:22:10.353Z,98705.69
2023-05-13T01:24:36.890Z,98701.50
2023-05-13T01:27:04.064Z,98707.09
2023-05-13T01:29:31.248Z,98702.22
2023-05-13T01:32:00.604Z,98707.28
2023-05-13T01:34:28.363Z,98711.94
2023-05-13T01:37:00.039Z,98711.94
2023-05-13T01:39:27.902Z,98711.41
2023-05-13T01:41:54.413Z,98714.44
2023-05-13T01:44:20.869Z,98719.19
2023-05-13T01:46:55.390Z,98725.09
2023-05-13T01:49:21.952Z,98723.13
2023-05-13T01:51:48.418Z,98732.81
2023-05-13T01:54:14.864Z,98732.50
2023-05-13T01:56:41.338Z,98731.72
2023-05-13T01:59:10.323Z,98723.38
2023-05-13T02:01:37.009Z,98724.78
2023-05-13T02:04:03.806Z,98724.16
2023-05-13T02:06:30.391Z,98725.19
2023-05-13T02:08:56.887Z,98726.94
2023-05-13T02:11:23.424Z,98721.53
2023-05-13T02:13:49.891Z,98719.84
2023-05-13T02:16:18.175Z,98708.03
2023-05-13T02:18:44.756Z,98710.16
2023-05-13T02:21:11.403Z,98711.97
2023-05-13T02:23:37.844Z,98703.75
2023-05-13T02:26:04.525Z,98706.38
2023-05-13T02:28:31.035Z,98706.28
2023-05-13T02:30:57.492Z,98714.78
2023-05-13T02:33:23.938Z,98709.25
2023-05-13T02:35:50.468Z,98718.09
2023-05-13T02:38:16.972Z,98714.81
2023-05-13T02:40:44.130Z,98711.66
2023-05-13T02:43:10.651Z,98715.00
2023-05-13T02:45:40.092Z,98702.22
2023-05-13T02:48:06.606Z,98704.25
2023-05-13T02:50:33.247Z,98707.09
2023-05-13T02:52:59.821Z,98697.16
2023-05-13T02:55:26.512Z,98696.47
2023-05-13T02:57:52.997Z,98697.94
2023-05-13T03:00:19.892Z,98696.69
2023-05-13T03:02:46.677Z,98698.97
2023-05-13T03:05:13.218Z,98701.91
2023-05-13T03:07:39.820Z,98700.00
2023-05-13T03:10:07.346Z,98702.09
2023-05-13T03:12:36.591Z,98703.53
2023-05-13T03:15:12.848Z,98702.88
2023-05-13T03:17:39.347Z,98704.63
2023-05-13T03:20:09.442Z,98707.19
2023-05-13T03:22:40.304Z,98702.69
2023-05-13T03:25:07.584Z,98705.81
2023-05-13T03:27:46.913Z,98704.03
2023-05-13T03:30:14.164Z,98705.63
2023-05-13T03:32:40.789Z,98707.13
2023-05-13T03:35:07.737Z,98707.75
2023-05-13T03:37:34.189Z,98705.50
2023-05-13T03:40:00.892Z,98711.50
2023-05-13T03:42:28.273Z,98709.81
2023-05-13T03:44:56.909Z,98717.28
2023-05-13T03:47:24.008Z,98716.91
2023-05-13T03:49:50.559Z,98720.38
2023-05-13T03:52:17.083Z,98717.91
2023-05-13T03:54:45.200Z,98726.06
2023-05-13T03:57:11.640Z,98716.91
2023-05-13T03:59:38.126Z,98713.59
2023-05-13T04:02:04.930Z,98721.94
2023-05-13T04:04:31.469Z,98712.88
2023-05-13T04:06:57.959Z,98718.03
2023-05-13T04:09:24.449Z,98722.91
2023-05-13T04:11:51.011Z,98724.47
2023-05-13T04:14:17.950Z,98721.13
2023-05-13T04:16:44.546Z,98725.84
2023-05-13T04:19:11.561Z,98716.91
2023-05-13T04:21:38.130Z,98722.53
2023-05-13T04:24:05.236Z,98719.72
2023-05-13T04:26:37.161Z,98722.69
2023-05-13T04:29:03.605Z,98715.44
2023-05-13T04:31:30.138Z,98724.31
2023-05-13T04:33:56.963Z,98720.22
2023-05-13T04:36:23.466Z,98725.63
2023-05-13T04:38:57.679Z,98722.81
2023-05-13T04:41:24.427Z,98716.59
2023-05-13T04:43:51.015Z,98729.38
2023-05-13T04:46:17.653Z,98727.03
2023-05-13T04:48:48.158Z,98729.72
2023-05-13T04:51:27.518Z,98727.25
2023-05-13T04:53:54.540Z,98732.56
2023-05-13T04:56:21.773Z,98733.88
2023-05-13T04:58:49.886Z,98738.69
2023-05-13T05:01:16.435Z,98733.34
2023-05-13T05:03:43.004Z,98729.31
2023-05-13T05:06:09.558Z,98735.66
2023-05-13T05:08:36.054Z,98735.66
2023-05-13T05:11:02.541Z,98735.25
2023-05-13T05:13:29.023Z,98742.94
2023-05-13T05:15:55.864Z,98735.00
2023-05-13T05:18:22.459Z,98735.22
2023-05-13T05:20:49.068Z,98749.56
2023-05-13T05:23:15.594Z,98745.22
2023-05-13T05:25:42.082Z,98748.72
2023-05-13T05:28:09.240Z,98752.38
2023-05-13T05:30:39.475Z,98758.28
2023-05-13T05:33:09.757Z,98751.88
2023-05-13T05:35:38.199Z,98752.84
2023-05-13T05:38:05.296Z,98753.16
2023-05-13T05:40:32.963Z,98753.50
2023-05-13T05:42:59.463Z,98757.69
2023-05-13T05:45:25.983Z,98754.94
2023-05-13T05:47:53.972Z,98763.41
2023-05-13T05:50:21.019Z,98763.22
2023-05-13T05:52:47.615Z,98761.63
2023-05-13T05:55:14.099Z,98760.69
2023-05-13T05:57:40.587Z,98753.06
2023-05-13T06:00:08.047Z,98755.16
2023-05-13T06:02:34.670Z,98762.78
2023-05-13T06:05:01.198Z,98759.50
2023-05-13T06:07:27.688Z,98770.03
2023-05-13T06:09:55.223Z,98759.78
2023-05-13T06:12:22.666Z,98766.31
2023-05-13T06:14:49.743Z,98769.25
2023-05-13T06:17:16.248Z,98768.41
2023-05-13T06:19:42.816Z,98763.13
2023-05-13T06:22:10.455Z,98762.22
2023-05-13T06:24:38.802Z,98762.22
2023-05-13T06:27:05.593Z,98761.66
2023-05-13T06:29:32.083Z,98759.66
2023-05-13T06:31:58.796Z,98761.72
2023-05-13T06:34:25.383Z,98761.53
2023-05-13T06:36:51.936Z,98762.69
2023-05-13T06:39:18.417Z,98754.97
2023-05-13T06:41:44.961Z,98756.00
2023-05-13T06:44:11.465Z,98758.19
2023-05-13T06:46:38.012Z,98759.53
2023-05-13T06:49:04.817Z,98758.69
2023-05-13T06:51:32.915Z,98759.25
2023-05-13T06:53:59.469Z,98756.84
2023-05-13T06:56:26.356Z,98755.00
2023-05-13T06:58:53.383Z,98751.19
2023-05-13T07:01:19.897Z,98752.19
2023-05-13T07:03:46.551Z,98752.72
2023-05-13T07:06:13.063Z,98752.13
2023-05-13T07:08:40.716Z,98755.41
2023-05-13T07:11:07.326Z,98752.06
2023-05-13T07:13:34.910Z,98750.41
2023-05-13T07:16:04.320Z,98752.88
2023-05-13T07:18:31.004Z,98755.44
2023-05-13T07:20:57.580Z,98752.84
2023-05-13T07:23:24.187Z,98756.09
2023-05-13T07:25:52.036Z,98753.78
2023-05-13T07:28:22.190Z,98752.38
2023-05-13T07:30:48.751Z,98752.69
2023-05-13T07:33:15.345Z,98751.44
2023-05-13T07:35:42.023Z,98749.06
2023-05-13T07:38:11.011Z,98752.28
2023-05-13T07:40:37.963Z,98746.56
2023-05-13T07:43:04.680Z,98741.91
2023-05-13T07:45:31.654Z,98744.44
2023-05-13T07:47:58.382Z,98744.72
2023-05-13T07:50:24.878Z,98741.50
2023-05-13T07:52:51.821Z,98740.22
2023-05-13T07:55:18.801Z,98743.72
2023-05-13T07:57:45.651Z,98742.88
2023-05-13T08:00:12.758Z,98736.41
2023-05-13T08:02:39.644Z,98744.03
2023-05-13T08:05:07.053Z,98751.84
2023-05-13T08:07:36.127Z,98746.66
2023-05-13T08:10:02.788Z,98745.94
2023-05-13T08:12:29.295Z,98746.78
2023-05-13T08:14:55.780Z,98739.88
2023-05-13T08:17:22.595Z,98741.31
2023-05-13T08:19:49.130Z,98737.28
2023-05-13T08:22:15.690Z,98737.56
2023-05-13T08:24:43.092Z,98735.63
2023-05-13T08:27:09.800Z,98730.72
2023-05-13T08:29:36.320Z,98727.84
2023-05-13T08:32:03.015Z,98732.91
2023-05-13T08:34:29.700Z,98726.41
2023-05-13T08:36:56.226Z,98730.13
2023-05-13T08:39:22.755Z,98737.47
2023-05-13T08:41:52.034Z,98732.50
2023-05-13T08:44:22.486Z,98727.00
2023-05-13T08:47:04.416Z,98735.00
2023-05-13T08:49:31.409Z,98725.78
2023-05-13T08:51:58.004Z,98720.44
2023-05-13T08:54:25.762Z,98717.13
2023-05-13T08:56:52.285Z,98724.19
2023-05-13T08:59:18.732Z,98722.28
2023-05-13T09:01:45.616Z,98719.41
2023-05-13T09:04:12.536Z,98714.44
2023-05-13T09:06:38.977Z,98716.97
2023-05-13T09:09:06.380Z,98718.97
2023-05-13T09:11:33.963Z,98713.66
2023-05-13T09:14:03.709Z,98716.25
2023-05-13T09:16:32.579Z,98705.81
2023-05-13T09:19:05.305Z,98704.50
2023-05-13T09:21:35.981Z,98701.84
2023-05-13T09:24:23.293Z,98697.50
2023-05-13T09:26:51.546Z,98693.91
2023-05-13T09:29:29.032Z,98698.19
2023-05-13T09:31:58.965Z,98690.31
2023-05-13T09:34:34.342Z,98688.66
2023-05-13T09:37:08.670Z,98685.03
2023-05-13T09:39:41.449Z,98682.94
2023-05-13T09:42:19.329Z,98685.75
2023-05-13T09:44:47.256Z,98681.25
2023-05-13T09:47:15.419Z,98674.22
2023-05-13T09:49:44.093Z,98682.78
2023-05-13T09:52:11.710Z,98682.59
2023-05-13T09:54:38.907Z,98673.56
2023-05-13T09:57:06.230Z,98680.63
2023-05-13T09:59:34.771Z,98678.41
2023-05-13T10:02:06.646Z,98689.78
2023-05-13T10:04:33.927Z,98678.38
2023-05-13T10:07:04.976Z,98685.88
2023-05-13T10:09:38.434Z,98686.72
2023-05-13T10:12:08.473Z,98676.53
2023-05-13T10:14:37.342Z,98680.56
2023-05-13T10:17:05.301Z,98691.28
2023-05-13T10:19:32.515Z,98683.75
2023-05-13T10:21:59.627Z,98733.34
2023-05-13T10:24:28.853Z,98725.59
2023-05-13T10:26:56.873Z,98719.25
2023-05-13T10:29:26.385Z,98716.41
2023-05-13T10:31:54.325Z,98705.53
2023-05-13T10:34:22.872Z,98695.31
2023-05-13T10:37:04.182Z,98693.97
2023-05-13T10:40:19.852Z,98687.41
2023-05-13T10:43:25.100Z,98686.53
2023-05-13T10:46:02.258Z,98689.56
2023-05-13T10:48:50.998Z,98705.53
2023-05-13T10:51:23.892Z,98691.66
2023-05-13T10:53:57.882Z,98689.31
2023-05-13T10:56:28.898Z,98695.13
2023-05-13T10:59:02.375Z,98690.28
2023-05-13T11:01:44.251Z,98684.78
2023-05-13T11:04:21.312Z,98684.97
2023-05-13T11:06:50.641Z,98677.25
2023-05-13T11:09:20.291Z,98681.25
2023-05-13T11:11:55.445Z,98681.59
2023-05-13T11:14:25.242Z,98674.25
2023-05-13T11:17:10.087Z,98674.41
2023-05-13T11:19:44.632Z,98673.09
2023-05-13T11:22:15.483Z,98658.97
2023-05-13T11:24:46.556Z,98665.34
2023-05-13T11:27:15.369Z,98658.81
2023-05-13T11:29:53.335Z,98653.97
2023-05-13T11:32:55.957Z,98647.97
2023-05-13T11:35:33.147Z,98642.28
2023-05-13T11:38:02.204Z,98637.91
2023-05-13T11:40:36.968Z,98653.13
2023-05-13T11:43:05.167Z,98651.66
2023-05-13T11:45:32.363Z,98647.28
2023-05-13T11:47:59.060Z,98647.47
2023-05-13T11:50:32.285Z,98648.13
2023-05-13T11:53:01.756Z,98655.94
2023-05-13T11:55:29.132Z,98666.31
2023-05-13T11:57:56.876Z,98669.38
2023-05-13T12:00:28.722Z,98680.28
2023-05-13T12:02:56.403Z,98680.28
2023-05-13T12:05:23.828Z,98678.69
2023-05-13T12:07:51.292Z,98676.72
2023-05-13T12:10:18.168Z,98676.38
2023-05-13T12:12:46.240Z,98674.69
2023-05-13T12:15:16.969Z,98680.03
2023-05-13T12:17:44.899Z,98688.63
2023-05-13T12:20:14.079Z,98686.38
2023-05-13T12:22:43.758Z,98703.84
2023-05-13T12:25:35.084Z,98705.53
2023-05-13T12:28:25.278Z,98706.69
2023-05-13T12:31:01.292Z,98709.88
2023-05-13T12:33:40.569Z,98703.41
2023-05-13T12:36:33.717Z,98703.72
2023-05-13T12:39:10.088Z,98697.91
2023-05-13T12:41:41.144Z,98713.66
2023-05-13T12:44:17.000Z,98724.22
2023-05-13T12:46:54.558Z,98713.34
2023-05-13T12:49:21.257Z,98714.84
2023-05-13T12:51:47.879Z,98710.09
2023-05-13T12:54:14.484Z,98716.09
2023-05-13T12:56:41.127Z,98717.22
2023-05-13T12:59:09.039Z,98710.56
2023-05-13T13:01:37.213Z,98697.44
2023-05-13T13:04:04.029Z,98697.13
2023-05-13T13:06:32.278Z,98684.41
2023-05-13T13:08:58.783Z,98679.78
2023-05-13T13:11:25.288Z,98675.25
2023-05-13T13:13:52.129Z,98675.59
2023-05-13T13:16:18.976Z,98678.44
2023-05-13T13:18:45.740Z,98680.91
2023-05-13T13:21:12.253Z,98682.22
2023-05-13T13:23:38.755Z,98685.28
2023-05-13T13:26:05.321Z,98677.69
2023-05-13T13:28:31.866Z,98687.06
2023-05-13T13:30:59.562Z,98685.88
2023-05-13T13:33:26.037Z,98682.44
2023-05-13T13:35:52.636Z,98676.06
2023-05-13T13:38:19.168Z,98683.34
2023-05-13T13:40:45.682Z,98675.41
2023-05-13T13:43:12.230Z,98667.25
2023-05-13T13:45:39.156Z,98665.59
2023-05-13T13:48:06.292Z,98675.72
2023-05-13T13:50:32.896Z,98664.13
2023-05-13T13:52:59.550Z,98654.00
2023-05-13T13:55:26.901Z,98657.56
2023-05-13T13:57:53.493Z,98653.97
2023-05-13T14:00:20.589Z,98667.53
2023-05-13T14:02:47.485Z,98685.19
2023-05-13T14:05:14.367Z,98694.56
2023-05-13T14:07:41.150Z,98691.22
2023-05-13T14:10:08.758Z,98689.53
2023-05-13T14:12:38.313Z,98691.63
2023-05-13T14:15:05.998Z,98702.72
2023-05-13T14:17:33.531Z,98698.53
2023-05-13T14:20:00.140Z,98699.94
2023-05-13T14:22:26.996Z,98692.75
2023-05-13T14:24:53.601Z,98689.34
2023-05-13T14:27:21.415Z,98693.47
2023-05-13T14:29:48.824Z,98702.19
2023-05-13T14:32:15.732Z,98694.03
2023-05-13T14:34:43.068Z,98698.25
2023-05-13T14:37:09.691Z,98691.72
2023-05-13T14:39:36.314Z,98696.97
2023-05-13T14:42:03.593Z,98696.97
2023-05-13T14:44:30.192Z,98694.75
2023-05-13T14:46:56.881Z,98685.75
2023-05-13T14:49:23.536Z,98683.06
2023-05-13T14:51:50.080Z,98686.06
2023-05-13T14:54:17.694Z,98674.25
2023-05-13T14:56:44.786Z,98681.00
2023-05-13T14:59:11.620Z,98688.78
2023-05-13T15:01:38.488Z,98689.44
2023-05-13T15:04:05.445Z,98679.22
2023-05-13T15:06:32.098Z,98674.84
2023-05-13T15:08:58.740Z,98672.47
2023-05-13T15:11:28.205Z,98665.16
2023-05-13T15:13:55.401Z,98666.66
2023-05-13T15:16:22.373Z,98666.59
2023-05-13T15:18:50.148Z,98661.88
2023-05-13T15:21:17.380Z,98654.13
2023-05-13T15:23:43.971Z,98655.16
2023-05-13T15:26:10.572Z,98658.84
2023-05-13T15:28:37.748Z,98658.84
2023-05-13T15:31:05.553Z,98655.09
2023-05-13T15:33:35.371Z,98659.19
2023-05-13T15:36:01.981Z,98652.22
2023-05-13T15:38:28.549Z,98651.81
2023-05-13T15:40:55.015Z,98645.75
2023-05-13T15:43:21.601Z,98636.72
2023-05-13T15:45:49.691Z,98640.97
2023-05-13T15:48:17.433Z,98641.19
2023-05-13T15:50:44.251Z,98636.75
2023-05-13T15:53:10.901Z,98639.91
2023-05-13T15:55:39.255Z,98636.59
2023-05-13T15:58:06.053Z,98643.25
2023-05-13T16:00:32.673Z,98640.16
2023-05-13T16:02:59.166Z,98640.16
2023-05-13T16:05:25.874Z,98639.88
2023-05-13T16:07:52.451Z,98629.78
2023-05-13T16:10:18.981Z,98636.22
2023-05-13T16:12:45.534Z,98621.97
2023-05-13T16:15:12.094Z,98623.16
2023-05-13T16:17:38.702Z,98615.66
2023-05-13T16:20:06.324Z,98618.97
2023-05-13T16:22:38.227Z,98619.88
2023-05-13T16:25:08.101Z,98616.16
2023-05-13T16:27:36.470Z,98623.56
2023-05-13T16:30:06.121Z,98614.75
2023-05-13T16:32:34.716Z,98626.13
2023-05-13T16:35:02.352Z,98625.72
2023-05-13T16:37:30.129Z,98628.28
2023-05-13T16:39:56.957Z,98626.44
2023-05-13T16:42:23.610Z,98632.31
2023-05-13T16:44:50.204Z,98628.81
2023-05-13T16:47:16.718Z,98636.06
2023-05-13T16:49:43.366Z,98635.91
2023-05-13T16:52:09.872Z,98635.59
2023-05-13T16:54:36.408Z,98638.13
2023-05-13T16:57:03.071Z,98635.06
2023-05-13T16:59:29.614Z,98665.78
2023-05-13T17:01:56.199Z,98664.59
2023-05-13T17:04:22.856Z,98666.84
2023-05-13T17:06:49.500Z,98671.38
2023-05-13T17:09:16.138Z,98667.00
2023-05-13T17:11:43.471Z,98669.03
2023-05-13T17:14:10.086Z,98664.84
2023-05-13T17:16:36.959Z,98677.25
2023-05-13T17:19:03.633Z,98669.03
2023-05-13T17:21:30.357Z,98667.72
2023-05-13T17:23:56.859Z,98668.56
2023-05-13T17:26:23.408Z,98671.41
2023-05-13T17:28:49.964Z,98660.88
2023-05-13T17:31:16.708Z,98667.72
2023-05-13T17:33:43.876Z,98658.66
2023-05-13T17:36:10.917Z,98661.31
2023-05-13T17:38:37.946Z,98656.31
2023-05-13T17:41:04.982Z,98659.81
2023-05-13T17:43:31.660Z,98661.03
2023-05-13T17:45:58.822Z,98657.84
2023-05-13T17:48:26.944Z,98658.50
2023-05-13T17:50:53.815Z,98664.81
2023-05-13T17:53:21.030Z,98664.59
2023-05-13T17:55:48.559Z,98664.59
2023-05-13T17:58:16.317Z,98663.59
2023-05-13T18:00:43.310Z,98667.00
2023-05-13T18:03:09.888Z,98665.50
2023-05-13T18:05:36.639Z,98659.84
2023-05-13T18:08:03.300Z,98657.50
2023-05-13T18:10:29.913Z,98662.00
2023-05-13T18:12:56.457Z,98666.31
2023-05-13T18:15:23.321Z,98659.75
2023-05-13T18:17:50.593Z,98655.69
2023-05-13T18:20:19.753Z,98657.19
2023-05-13T18:22:46.359Z,98663.97
2023-05-13T18:25:13.133Z,98665.88
2023-05-13T18:27:39.607Z,98650.59
2023-05-13T18:30:07.652Z,98655.88
2023-05-13T18:32:34.213Z,98665.63
2023-05-13T18:35:00.714Z,98666.31
2023-05-13T18:37:27.229Z,98657.81
2023-05-13T18:39:53.760Z,98665.06
2023-05-13T18:42:20.901Z,98663.34
2023-05-13T18:44:47.487Z,98662.91
2023-05-13T18:47:13.971Z,98661.75
2023-05-13T18:49:40.425Z,98668.41
2023-05-13T18:52:07.249Z,98671.09
2023-05-13T18:54:33.742Z,98675.34
2023-05-13T18:57:00.435Z,98672.28
2023-05-13T18:59:27.139Z,98676.81
2023-05-13T19:01:53.774Z,98675.13
2023-05-13T19:04:20.570Z,98674.03
2023-05-13T19:06:47.326Z,98676.69
2023-05-13T19:09:14.273Z,98677.94
2023-05-13T19:11:40.812Z,98682.78
2023-05-13T19:14:07.455Z,98680.13
2023-05-13T19:16:34.081Z,98679.25
2023-05-13T19:19:00.624Z,98679.75
2023-05-13T19:21:27.155Z,98680.69
2023-05-13T19:23:53.691Z,98686.91
2023-05-13T19:26:20.614Z,98689.66
2023-05-13T19:28:47.617Z,98692.66
2023-05-13T19:31:14.213Z,98694.41
2023-05-13T19:33:41.063Z,98696.88
2023-05-13T19:36:08.781Z,98698.34
2023-05-13T19:38:35.596Z,98698.75
2023-05-13T19:41:02.098Z,98691.47
2023-05-13T19:43:28.611Z,98700.41
2023-05-13T19:45:57.425Z,98702.59
2023-05-13T19:48:23.946Z,98699.25
2023-05-13T19:50:53.222Z,98701.59
2023-05-13T19:53:21.437Z,98707.22
2023-05-13T19:55:47.960Z,98707.44
2023-05-13T19:58:14.467Z,98704.22
2023-05-13T20:00:41.025Z,98708.22
2023-05-13T20:03:07.575Z,98713.63
2023-05-13T20:05:34.208Z,98720.88
2023-05-13T20:08:01.114Z,98714.75
2023-05-13T20:10:27.706Z,98712.34
2023-05-13T20:12:54.227Z,98704.78
2023-05-13T20:15:20.885Z,98710.91
2023-05-13T20:17:47.530Z,98715.81
2023-05-13T20:20:14.145Z,98711.41
2023-05-13T20:22:40.654Z,98715.34
2023-05-13T20:25:07.541Z,98720.00
2023-05-13T20:27:34.758Z,98720.22
2023-05-13T20:30:02.074Z,98718.19
2023-05-13T20:32:28.694Z,98718.03
2023-05-13T20:34:55.217Z,98722.75
2023-05-13T20:37:24.086Z,98723.72
2023-05-13T20:39:51.558Z,98720.19
2023-05-13T20:42:18.170Z,98719.56
2023-05-13T20:44:46.292Z,98734.94
2023-05-13T20:47:14.137Z,98722.28
2023-05-13T20:49:43.742Z,98725.63
2023-05-13T20:52:11.158Z,98724.44
2023-05-13T20:54:38.552Z,98724.66
2023-05-13T20:57:05.702Z,98730.03
2023-05-13T20:59:32.438Z,98731.44
2023-05-13T21:01:59.041Z,98731.09
2023-05-13T21:04:25.623Z,98732.97
2023-05-13T21:06:52.973Z,98734.22
2023-05-13T21:09:19.502Z,98738.03
2023-05-13T21:11:46.109Z,98733.16
2023-05-13T21:14:12.609Z,98739.34
2023-05-13T21:16:39.102Z,98743.81
2023-05-13T21:19:05.721Z,98748.00
2023-05-13T21:21:32.380Z,98737.91
2023-05-13T21:23:58.931Z,98742.59
2023-05-13T21:26:25.933Z,98746.19
2023-05-13T21:28:52.505Z,98743.00
2023-05-13T21:31:19.095Z,98745.13
2023-05-13T21:33:45.635Z,98748.75
2023-05-13T21:36:12.093Z,98747.72
2023-05-13T21:38:38.523Z,98750.69
2023-05-13T21:41:05.063Z,98747.72
2023-05-13T21:43:31.548Z,98736.56
2023-05-13T21:45:58.152Z,98740.34
2023-05-13T21:48:24.824Z,98741.44
2023-05-13T21:50:53.688Z,98735.13
2023-05-13T21:53:20.194Z,98739.59
2023-05-13T21:55:49.290Z,98743.16
2023-05-13T21:58:16.169Z,98740.97
2023-05-13T22:00:44.004Z,98748.44
2023-05-13T22:03:10.669Z,98742.41
2023-05-13T22:05:43.493Z,98744.59
2023-05-13T22:08:11.054Z,98745.47
2023-05-13T22:10:38.988Z,98750.13
2023-05-13T22:13:06.062Z,98753.78
2023-05-13T22:15:32.608Z,98745.47
2023-05-13T22:17:59.272Z,98746.19
2023-05-13T22:20:26.592Z,98746.19
2023-05-13T22:22:53.187Z,98740.41
2023-05-13T22:25:21.956Z,98742.00
2023-05-13T22:27:55.341Z,98741.75
2023-05-13T22:30:21.969Z,98742.53
2023-05-13T22:32:50.330Z,98746.09
2023-05-13T22:35:17.095Z,98744.28
2023-05-13T22:37:43.833Z,98744.47
2023-05-13T22:40:18.688Z,98750.00
2023-05-13T22:42:53.403Z,98747.75
2023-05-13T22:45:19.959Z,98749.47
2023-05-13T22:47:48.032Z,98748.56
2023-05-13T22:50:14.591Z,98755.66
2023-05-13T22:52:41.130Z,98741.75
2023-05-13T22:55:08.621Z,98743.63
2023-05-13T22:57:35.158Z,98740.66
2023-05-13T23:00:01.914Z,98735.19
2023-05-13T23:02:28.432Z,98738.13
2023-05-13T23:04:54.957Z,98741.72
2023-05-13T23:07:22.719Z,98737.19
2023-05-13T23:09:57.986Z,98737.22
2023-05-13T23:12:33.196Z,98735.06
2023-05-13T23:14:59.724Z,98732.69
2023-05-13T23:17:26.248Z,98735.69
2023-05-13T23:19:52.708Z,98735.31
2023-05-13T23:22:19.161Z,98733.94
2023-05-13T23:24:45.619Z,98731.19
2023-05-13T23:27:22.836Z,98732.91
2023-05-13T23:29:49.277Z,98733.84
2023-05-13T23:32:16.046Z,98732.84
2023-05-13T23:34:42.565Z,98734.75
2023-05-13T23:37:09.074Z,98730.22
2023-05-13T23:39:35.860Z,98733.16
2023-05-13T23:42:02.396Z,98724.41
2023-05-13T23:44:37.781Z,98722.75
2023-05-13T23:47:04.737Z,98717.66
2023-05-13T23:49:31.268Z,98714.28
2023-05-13T23:51:57.713Z,98716.25
2023-05-13T23:54:24.198Z,98712.69
2023-05-13T23:56:53.277Z,98716.63
2023-05-13T23:59:19.860Z,98710.41
